sensor_id;sensor_type;location;lat;lon;timestamp;P1;durP1;ratioP1;P2;durP2;ratioP2
70558;SDS011;58108;48.094;11.838;2022-09-21T00:01:57;3.50;;;1.05;;
70558;SDS011;58108;48.094;11.838;2022-09-21T00:04:22;3.93;;;1.10;;
70558;SDS011;58108;48.094;11.838;2022-09-21T00:06:47;3.57;;;1.20;;
70558;SDS011;58108;48.094;11.838;2022-09-21T00:09:13;3.28;;;0.80;;
70558;SDS011;58108;48.094;11.838;2022-09-21T00:11:38;2.93;;;1.00;;
70558;SDS011;58108;48.094;11.838;2022-09-21T00:14:05;3.37;;;1.20;;
70558;SDS011;58108;48.094;11.838;2022-09-21T00:16:37;4.15;;;1.10;;
70558;SDS011;58108;48.094;11.838;2022-09-21T00:19:04;4.10;;;1.03;;
70558;SDS011;58108;48.094;11.838;2022-09-21T00:21:30;3.38;;;1.08;;
70558;SDS011;58108;48.094;11.838;2022-09-21T00:23:56;4.17;;;1.20;;
70558;SDS011;58108;48.094;11.838;2022-09-21T00:26:23;3.35;;;1.20;;
70558;SDS011;58108;48.094;11.838;2022-09-21T00:28:54;3.53;;;1.10;;
70558;SDS011;58108;48.094;11.838;2022-09-21T00:31:21;3.55;;;0.95;;
70558;SDS011;58108;48.094;11.838;2022-09-21T00:33:47;2.90;;;1.10;;
70558;SDS011;58108;48.094;11.838;2022-09-21T00:36:14;2.88;;;1.00;;
70558;SDS011;58108;48.094;11.838;2022-09-21T00:38:41;3.80;;;1.10;;
70558;SDS011;58108;48.094;11.838;2022-09-21T00:41:07;4.70;;;1.23;;
70558;SDS011;58108;48.094;11.838;2022-09-21T00:43:34;3.03;;;1.05;;
70558;SDS011;58108;48.094;11.838;2022-09-21T00:46:03;2.70;;;0.80;;
70558;SDS011;58108;48.094;11.838;2022-09-21T00:48:34;4.05;;;1.08;;
70558;SDS011;58108;48.094;11.838;2022-09-21T00:51:00;3.50;;;1.00;;
70558;SDS011;58108;48.094;11.838;2022-09-21T00:53:29;3.15;;;0.80;;
70558;SDS011;58108;48.094;11.838;2022-09-21T00:55:56;4.50;;;0.93;;
70558;SDS011;58108;48.094;11.838;2022-09-21T00:58:27;3.13;;;0.88;;
70558;SDS011;58108;48.094;11.838;2022-09-21T01:00:55;3.67;;;0.80;;
70558;SDS011;58108;48.094;11.838;2022-09-21T01:03:23;2.60;;;0.90;;
70558;SDS011;58108;48.094;11.838;2022-09-21T01:05:49;2.95;;;0.77;;
70558;SDS011;58108;48.094;11.838;2022-09-21T01:08:14;3.60;;;1.13;;
70558;SDS011;58108;48.094;11.838;2022-09-21T01:22:24;4.45;;;1.77;;
70558;SDS011;58108;48.094;11.838;2022-09-21T01:24:59;3.77;;;1.10;;
70558;SDS011;58108;48.094;11.838;2022-09-21T01:30:41;3.33;;;1.23;;
70558;SDS011;58108;48.094;11.838;2022-09-21T01:34:09;7.68;;;1.40;;
70558;SDS011;58108;48.094;11.838;2022-09-21T01:36:13;7.05;;;1.65;;
70558;SDS011;58108;48.094;11.838;2022-09-21T01:38:44;4.47;;;1.40;;
70558;SDS011;58108;48.094;11.838;2022-09-21T01:41:17;6.20;;;1.83;;
70558;SDS011;58108;48.094;11.838;2022-09-21T01:43:50;5.45;;;1.75;;
70558;SDS011;58108;48.094;11.838;2022-09-21T01:46:21;5.70;;;1.42;;
70558;SDS011;58108;48.094;11.838;2022-09-21T01:48:52;3.78;;;1.40;;
70558;SDS011;58108;48.094;11.838;2022-09-21T01:51:24;3.90;;;1.60;;
70558;SDS011;58108;48.094;11.838;2022-09-21T01:53:55;3.72;;;1.70;;
70558;SDS011;58108;48.094;11.838;2022-09-21T01:56:32;3.80;;;1.50;;
70558;SDS011;58108;48.094;11.838;2022-09-21T02:02:05;5.88;;;1.48;;
70558;SDS011;58108;48.094;11.838;2022-09-21T02:04:37;4.78;;;1.80;;
70558;SDS011;58108;48.094;11.838;2022-09-21T02:07:03;4.40;;;1.58;;
70558;SDS011;58108;48.094;11.838;2022-09-21T02:09:31;3.67;;;1.40;;
70558;SDS011;58108;48.094;11.838;2022-09-21T02:11:59;4.07;;;1.42;;
70558;SDS011;58108;48.094;11.838;2022-09-21T02:14:26;3.13;;;1.42;;
70558;SDS011;58108;48.094;11.838;2022-09-21T02:16:56;3.92;;;1.60;;
70558;SDS011;58108;48.094;11.838;2022-09-21T02:22:15;3.47;;;1.17;;
70558;SDS011;58108;48.094;11.838;2022-09-21T02:24:54;3.17;;;0.98;;
70558;SDS011;58108;48.094;11.838;2022-09-21T02:41:03;4.03;;;1.10;;
70558;SDS011;58108;48.094;11.838;2022-09-21T02:43:36;3.63;;;1.10;;
70558;SDS011;58108;48.094;11.838;2022-09-21T02:46:12;4.82;;;1.00;;
70558;SDS011;58108;48.094;11.838;2022-09-21T02:48:45;3.58;;;1.15;;
70558;SDS011;58108;48.094;11.838;2022-09-21T02:51:17;4.65;;;0.70;;
70558;SDS011;58108;48.094;11.838;2022-09-21T02:53:46;2.67;;;0.68;;
70558;SDS011;58108;48.094;11.838;2022-09-21T02:56:14;2.92;;;0.80;;
70558;SDS011;58108;48.094;11.838;2022-09-21T02:58:41;3.15;;;0.90;;
70558;SDS011;58108;48.094;11.838;2022-09-21T03:01:11;3.33;;;1.05;;
70558;SDS011;58108;48.094;11.838;2022-09-21T03:03:39;5.90;;;1.20;;
70558;SDS011;58108;48.094;11.838;2022-09-21T03:06:05;5.20;;;1.45;;
70558;SDS011;58108;48.094;11.838;2022-09-21T03:08:31;3.35;;;1.13;;
70558;SDS011;58108;48.094;11.838;2022-09-21T03:10:56;3.80;;;1.00;;
70558;SDS011;58108;48.094;11.838;2022-09-21T03:13:22;3.17;;;1.10;;
70558;SDS011;58108;48.094;11.838;2022-09-21T03:15:47;3.78;;;1.10;;
70558;SDS011;58108;48.094;11.838;2022-09-21T03:18:13;3.80;;;1.20;;
70558;SDS011;58108;48.094;11.838;2022-09-21T03:20:39;5.47;;;1.80;;
70558;SDS011;58108;48.094;11.838;2022-09-21T03:23:09;4.35;;;1.90;;
70558;SDS011;58108;48.094;11.838;2022-09-21T03:25:35;4.40;;;1.50;;
70558;SDS011;58108;48.094;11.838;2022-09-21T03:28:01;4.40;;;1.50;;
70558;SDS011;58108;48.094;11.838;2022-09-21T03:30:26;4.47;;;1.53;;
70558;SDS011;58108;48.094;11.838;2022-09-21T03:32:53;3.33;;;1.20;;
70558;SDS011;58108;48.094;11.838;2022-09-21T03:35:19;3.90;;;1.30;;
70558;SDS011;58108;48.094;11.838;2022-09-21T03:37:46;4.60;;;1.38;;
70558;SDS011;58108;48.094;11.838;2022-09-21T03:40:14;4.27;;;1.20;;
70558;SDS011;58108;48.094;11.838;2022-09-21T03:42:40;3.72;;;1.10;;
70558;SDS011;58108;48.094;11.838;2022-09-21T03:45:06;4.50;;;1.55;;
70558;SDS011;58108;48.094;11.838;2022-09-21T03:47:33;4.80;;;1.30;;
70558;SDS011;58108;48.094;11.838;2022-09-21T03:49:58;3.75;;;1.52;;
70558;SDS011;58108;48.094;11.838;2022-09-21T03:52:24;3.87;;;1.40;;
70558;SDS011;58108;48.094;11.838;2022-09-21T03:54:49;3.70;;;1.10;;
70558;SDS011;58108;48.094;11.838;2022-09-21T03:57:15;4.93;;;1.40;;
70558;SDS011;58108;48.094;11.838;2022-09-21T03:59:40;3.57;;;1.50;;
70558;SDS011;58108;48.094;11.838;2022-09-21T04:02:06;3.97;;;1.30;;
70558;SDS011;58108;48.094;11.838;2022-09-21T04:04:31;4.07;;;1.20;;
70558;SDS011;58108;48.094;11.838;2022-09-21T04:06:57;3.90;;;1.13;;
70558;SDS011;58108;48.094;11.838;2022-09-21T04:09:22;3.05;;;1.05;;
70558;SDS011;58108;48.094;11.838;2022-09-21T04:11:48;3.77;;;1.17;;
70558;SDS011;58108;48.094;11.838;2022-09-21T04:14:13;4.43;;;1.60;;
70558;SDS011;58108;48.094;11.838;2022-09-21T04:16:38;4.75;;;1.17;;
70558;SDS011;58108;48.094;11.838;2022-09-21T04:19:04;3.47;;;1.30;;
70558;SDS011;58108;48.094;11.838;2022-09-21T04:21:29;5.13;;;1.30;;
70558;SDS011;58108;48.094;11.838;2022-09-21T04:23:55;4.63;;;1.40;;
70558;SDS011;58108;48.094;11.838;2022-09-21T04:26:24;2.85;;;0.98;;
70558;SDS011;58108;48.094;11.838;2022-09-21T04:28:51;4.50;;;1.00;;
70558;SDS011;58108;48.094;11.838;2022-09-21T04:31:19;5.47;;;1.52;;
70558;SDS011;58108;48.094;11.838;2022-09-21T04:33:46;3.88;;;1.30;;
70558;SDS011;58108;48.094;11.838;2022-09-21T04:36:13;3.67;;;1.53;;
70558;SDS011;58108;48.094;11.838;2022-09-21T04:38:39;3.50;;;1.38;;
70558;SDS011;58108;48.094;11.838;2022-09-21T04:41:04;3.03;;;1.20;;
70558;SDS011;58108;48.094;11.838;2022-09-21T04:43:30;4.75;;;1.33;;
70558;SDS011;58108;48.094;11.838;2022-09-21T04:45:56;4.17;;;1.40;;
70558;SDS011;58108;48.094;11.838;2022-09-21T04:48:21;4.27;;;1.50;;
70558;SDS011;58108;48.094;11.838;2022-09-21T04:50:47;4.77;;;1.30;;
70558;SDS011;58108;48.094;11.838;2022-09-21T04:53:13;4.32;;;1.30;;
70558;SDS011;58108;48.094;11.838;2022-09-21T04:55:39;4.00;;;1.10;;
70558;SDS011;58108;48.094;11.838;2022-09-21T04:58:04;2.80;;;1.10;;
70558;SDS011;58108;48.094;11.838;2022-09-21T05:00:29;4.23;;;1.10;;
70558;SDS011;58108;48.094;11.838;2022-09-21T05:02:55;3.97;;;1.27;;
70558;SDS011;58108;48.094;11.838;2022-09-21T05:05:20;4.65;;;1.35;;
70558;SDS011;58108;48.094;11.838;2022-09-21T05:07:45;4.47;;;1.48;;
70558;SDS011;58108;48.094;11.838;2022-09-21T05:10:10;3.53;;;1.40;;
70558;SDS011;58108;48.094;11.838;2022-09-21T05:12:36;4.22;;;1.50;;
70558;SDS011;58108;48.094;11.838;2022-09-21T05:15:01;6.87;;;1.50;;
70558;SDS011;58108;48.094;11.838;2022-09-21T05:17:27;4.37;;;1.77;;
70558;SDS011;58108;48.094;11.838;2022-09-21T05:19:52;4.23;;;1.60;;
70558;SDS011;58108;48.094;11.838;2022-09-21T05:22:18;3.55;;;1.30;;
70558;SDS011;58108;48.094;11.838;2022-09-21T05:24:44;5.47;;;1.30;;
70558;SDS011;58108;48.094;11.838;2022-09-21T05:27:09;3.40;;;1.10;;
70558;SDS011;58108;48.094;11.838;2022-09-21T05:29:35;5.43;;;1.33;;
70558;SDS011;58108;48.094;11.838;2022-09-21T05:32:43;3.37;;;1.50;;
70558;SDS011;58108;48.094;11.838;2022-09-21T05:37:35;4.80;;;1.70;;
70558;SDS011;58108;48.094;11.838;2022-09-21T05:40:07;5.35;;;1.50;;
70558;SDS011;58108;48.094;11.838;2022-09-21T05:42:35;5.53;;;1.75;;
70558;SDS011;58108;48.094;11.838;2022-09-21T05:45:00;5.93;;;1.80;;
70558;SDS011;58108;48.094;11.838;2022-09-21T05:50:38;5.38;;;1.50;;
70558;SDS011;58108;48.094;11.838;2022-09-21T05:56:10;3.92;;;1.35;;
70558;SDS011;58108;48.094;11.838;2022-09-21T06:01:39;6.27;;;1.80;;
70558;SDS011;58108;48.094;11.838;2022-09-21T06:04:16;4.65;;;1.95;;
70558;SDS011;58108;48.094;11.838;2022-09-21T06:06:41;6.78;;;2.10;;
70558;SDS011;58108;48.094;11.838;2022-09-21T06:09:06;4.20;;;1.92;;
70558;SDS011;58108;48.094;11.838;2022-09-21T06:11:32;4.80;;;1.70;;
70558;SDS011;58108;48.094;11.838;2022-09-21T06:13:59;4.80;;;1.90;;
70558;SDS011;58108;48.094;11.838;2022-09-21T06:16:24;3.85;;;2.10;;
70558;SDS011;58108;48.094;11.838;2022-09-21T06:18:50;4.83;;;2.50;;
70558;SDS011;58108;48.094;11.838;2022-09-21T06:21:15;5.67;;;2.47;;
70558;SDS011;58108;48.094;11.838;2022-09-21T06:23:40;4.37;;;2.10;;
70558;SDS011;58108;48.094;11.838;2022-09-21T06:26:05;5.23;;;2.40;;
70558;SDS011;58108;48.094;11.838;2022-09-21T06:28:31;6.77;;;1.83;;
70558;SDS011;58108;48.094;11.838;2022-09-21T06:30:56;6.43;;;2.00;;
70558;SDS011;58108;48.094;11.838;2022-09-21T06:33:22;4.13;;;1.75;;
70558;SDS011;58108;48.094;11.838;2022-09-21T06:35:55;5.07;;;2.00;;
70558;SDS011;58108;48.094;11.838;2022-09-21T06:38:22;4.53;;;2.10;;
70558;SDS011;58108;48.094;11.838;2022-09-21T06:40:49;5.90;;;2.30;;
70558;SDS011;58108;48.094;11.838;2022-09-21T06:43:15;4.95;;;1.90;;
70558;SDS011;58108;48.094;11.838;2022-09-21T06:45:40;5.03;;;2.10;;
70558;SDS011;58108;48.094;11.838;2022-09-21T06:48:06;5.53;;;2.10;;
70558;SDS011;58108;48.094;11.838;2022-09-21T06:50:31;5.90;;;2.20;;
70558;SDS011;58108;48.094;11.838;2022-09-21T06:53:00;5.82;;;2.25;;
70558;SDS011;58108;48.094;11.838;2022-09-21T06:55:26;4.68;;;1.95;;
70558;SDS011;58108;48.094;11.838;2022-09-21T06:57:52;6.57;;;2.00;;
70558;SDS011;58108;48.094;11.838;2022-09-21T07:00:18;5.27;;;1.97;;
70558;SDS011;58108;48.094;11.838;2022-09-21T07:02:44;5.63;;;2.10;;
70558;SDS011;58108;48.094;11.838;2022-09-21T07:05:09;5.55;;;2.10;;
70558;SDS011;58108;48.094;11.838;2022-09-21T07:07:35;5.07;;;1.90;;
70558;SDS011;58108;48.094;11.838;2022-09-21T07:10:00;5.60;;;1.70;;
70558;SDS011;58108;48.094;11.838;2022-09-21T07:12:27;5.60;;;1.77;;
70558;SDS011;58108;48.094;11.838;2022-09-21T07:14:53;6.18;;;1.75;;
70558;SDS011;58108;48.094;11.838;2022-09-21T07:17:19;3.92;;;1.52;;
70558;SDS011;58108;48.094;11.838;2022-09-21T07:19:44;6.30;;;2.57;;
70558;SDS011;58108;48.094;11.838;2022-09-21T07:22:10;4.40;;;2.10;;
70558;SDS011;58108;48.094;11.838;2022-09-21T07:24:35;4.17;;;1.60;;
70558;SDS011;58108;48.094;11.838;2022-09-21T07:27:02;5.57;;;1.70;;
70558;SDS011;58108;48.094;11.838;2022-09-21T07:29:27;5.10;;;1.90;;
70558;SDS011;58108;48.094;11.838;2022-09-21T07:31:52;3.60;;;1.50;;
70558;SDS011;58108;48.094;11.838;2022-09-21T07:34:18;4.17;;;1.23;;
70558;SDS011;58108;48.094;11.838;2022-09-21T07:36:43;3.67;;;1.40;;
70558;SDS011;58108;48.094;11.838;2022-09-21T07:39:09;4.60;;;1.58;;
70558;SDS011;58108;48.094;11.838;2022-09-21T07:41:34;4.80;;;1.23;;
70558;SDS011;58108;48.094;11.838;2022-09-21T07:44:01;3.42;;;1.40;;
70558;SDS011;58108;48.094;11.838;2022-09-21T07:46:26;5.82;;;1.40;;
70558;SDS011;58108;48.094;11.838;2022-09-21T07:48:52;4.70;;;1.17;;
70558;SDS011;58108;48.094;11.838;2022-09-21T07:51:18;4.43;;;1.27;;
70558;SDS011;58108;48.094;11.838;2022-09-21T07:53:44;3.07;;;0.93;;
70558;SDS011;58108;48.094;11.838;2022-09-21T07:56:10;3.73;;;0.70;;
70558;SDS011;58108;48.094;11.838;2022-09-21T07:58:38;2.35;;;0.68;;
70558;SDS011;58108;48.094;11.838;2022-09-21T08:01:22;3.30;;;0.55;;
70558;SDS011;58108;48.094;11.838;2022-09-21T08:03:52;2.20;;;0.50;;
70558;SDS011;58108;48.094;11.838;2022-09-21T08:06:19;2.42;;;0.70;;
70558;SDS011;58108;48.094;11.838;2022-09-21T08:08:46;2.60;;;0.70;;
70558;SDS011;58108;48.094;11.838;2022-09-21T08:11:12;2.67;;;0.57;;
70558;SDS011;58108;48.094;11.838;2022-09-21T08:13:39;2.78;;;0.50;;
70558;SDS011;58108;48.094;11.838;2022-09-21T08:16:04;2.27;;;0.40;;
70558;SDS011;58108;48.094;11.838;2022-09-21T08:18:30;2.03;;;0.50;;
70558;SDS011;58108;48.094;11.838;2022-09-21T08:20:56;1.90;;;0.40;;
70558;SDS011;58108;48.094;11.838;2022-09-21T08:23:22;2.33;;;0.50;;
70558;SDS011;58108;48.094;11.838;2022-09-21T08:25:48;2.08;;;0.45;;
70558;SDS011;58108;48.094;11.838;2022-09-21T08:28:13;1.73;;;0.23;;
70558;SDS011;58108;48.094;11.838;2022-09-21T08:30:39;1.50;;;0.20;;
70558;SDS011;58108;48.094;11.838;2022-09-21T08:33:05;2.45;;;0.40;;
70558;SDS011;58108;48.094;11.838;2022-09-21T08:35:32;2.90;;;0.35;;
70558;SDS011;58108;48.094;11.838;2022-09-21T08:37:58;1.92;;;0.30;;
70558;SDS011;58108;48.094;11.838;2022-09-21T08:40:24;2.37;;;0.33;;
70558;SDS011;58108;48.094;11.838;2022-09-21T08:45:37;2.42;;;0.30;;
70558;SDS011;58108;48.094;11.838;2022-09-21T08:48:09;2.72;;;0.30;;
70558;SDS011;58108;48.094;11.838;2022-09-21T08:50:41;3.10;;;0.47;;
70558;SDS011;58108;48.094;11.838;2022-09-21T08:53:15;2.15;;;0.30;;
70558;SDS011;58108;48.094;11.838;2022-09-21T08:55:43;1.90;;;0.37;;
70558;SDS011;58108;48.094;11.838;2022-09-21T08:58:15;2.17;;;0.30;;
70558;SDS011;58108;48.094;11.838;2022-09-21T09:00:47;1.90;;;0.30;;
70558;SDS011;58108;48.094;11.838;2022-09-21T09:03:28;1.77;;;0.20;;
70558;SDS011;58108;48.094;11.838;2022-09-21T09:06:19;1.67;;;0.30;;
70558;SDS011;58108;48.094;11.838;2022-09-21T09:14:31;2.20;;;0.47;;
70558;SDS011;58108;48.094;11.838;2022-09-21T09:19:51;2.17;;;0.30;;
70558;SDS011;58108;48.094;11.838;2022-09-21T09:22:28;2.92;;;0.25;;
70558;SDS011;58108;48.094;11.838;2022-09-21T09:25:02;1.92;;;0.20;;
70558;SDS011;58108;48.094;11.838;2022-09-21T09:27:33;1.27;;;0.15;;
70558;SDS011;58108;48.094;11.838;2022-09-21T09:32:42;1.83;;;0.10;;
70558;SDS011;58108;48.094;11.838;2022-09-21T09:35:15;1.30;;;0.20;;
70558;SDS011;58108;48.094;11.838;2022-09-21T09:37:44;1.98;;;0.28;;
70558;SDS011;58108;48.094;11.838;2022-09-21T09:40:11;2.05;;;0.35;;
70558;SDS011;58108;48.094;11.838;2022-09-21T09:42:44;1.93;;;0.10;;
70558;SDS011;58108;48.094;11.838;2022-09-21T09:45:28;1.45;;;0.10;;
70558;SDS011;58108;48.094;11.838;2022-09-21T09:50:57;1.63;;;0.13;;
70558;SDS011;58108;48.094;11.838;2022-09-21T09:53:23;2.07;;;0.20;;
70558;SDS011;58108;48.094;11.838;2022-09-21T09:55:51;2.03;;;0.30;;
70558;SDS011;58108;48.094;11.838;2022-09-21T09:58:20;1.75;;;0.20;;
70558;SDS011;58108;48.094;11.838;2022-09-21T10:00:51;1.90;;;0.50;;
70558;SDS011;58108;48.094;11.838;2022-09-21T10:03:20;1.55;;;0.30;;
70558;SDS011;58108;48.094;11.838;2022-09-21T10:05:49;2.17;;;0.30;;
70558;SDS011;58108;48.094;11.838;2022-09-21T10:08:48;1.60;;;0.20;;
70558;SDS011;58108;48.094;11.838;2022-09-21T10:11:08;1.63;;;0.20;;
70558;SDS011;58108;48.094;11.838;2022-09-21T10:13:35;1.75;;;0.20;;
70558;SDS011;58108;48.094;11.838;2022-09-21T10:18:34;1.58;;;0.22;;
70558;SDS011;58108;48.094;11.838;2022-09-21T10:21:02;1.65;;;0.30;;
70558;SDS011;58108;48.094;11.838;2022-09-21T10:23:31;1.58;;;0.20;;
70558;SDS011;58108;48.094;11.838;2022-09-21T10:26:02;1.73;;;0.20;;
70558;SDS011;58108;48.094;11.838;2022-09-21T10:28:31;1.65;;;0.22;;
70558;SDS011;58108;48.094;11.838;2022-09-21T10:31:17;1.50;;;0.20;;
70558;SDS011;58108;48.094;11.838;2022-09-21T10:33:51;1.23;;;0.20;;
70558;SDS011;58108;48.094;11.838;2022-09-21T10:36:37;1.42;;;0.30;;
70558;SDS011;58108;48.094;11.838;2022-09-21T10:41:57;2.00;;;0.20;;
70558;SDS011;58108;48.094;11.838;2022-09-21T10:44:27;1.95;;;0.10;;
70558;SDS011;58108;48.094;11.838;2022-09-21T10:46:58;1.55;;;0.20;;
70558;SDS011;58108;48.094;11.838;2022-09-21T10:49:41;1.05;;;0.20;;
70558;SDS011;58108;48.094;11.838;2022-09-21T10:52:10;1.10;;;0.10;;
70558;SDS011;58108;48.094;11.838;2022-09-21T10:54:35;1.88;;;0.20;;
70558;SDS011;58108;48.094;11.838;2022-09-21T10:57:12;1.25;;;0.20;;
70558;SDS011;58108;48.094;11.838;2022-09-21T10:59:40;1.30;;;0.10;;
70558;SDS011;58108;48.094;11.838;2022-09-21T11:04:56;1.67;;;0.28;;
70558;SDS011;58108;48.094;11.838;2022-09-21T11:07:34;1.88;;;0.40;;
70558;SDS011;58108;48.094;11.838;2022-09-21T11:10:17;1.80;;;0.20;;
70558;SDS011;58108;48.094;11.838;2022-09-21T11:12:58;1.33;;;0.22;;
70558;SDS011;58108;48.094;11.838;2022-09-21T11:18:17;1.00;;;0.10;;
70558;SDS011;58108;48.094;11.838;2022-09-21T11:20:48;1.88;;;0.25;;
70558;SDS011;58108;48.094;11.838;2022-09-21T11:23:35;2.05;;;0.20;;
70558;SDS011;58108;48.094;11.838;2022-09-21T11:26:13;1.30;;;0.20;;
70558;SDS011;58108;48.094;11.838;2022-09-21T11:28:51;1.75;;;0.30;;
70558;SDS011;58108;48.094;11.838;2022-09-21T11:31:34;2.70;;;0.40;;
70558;SDS011;58108;48.094;11.838;2022-09-21T11:37:15;1.55;;;0.20;;
70558;SDS011;58108;48.094;11.838;2022-09-21T11:48:15;2.33;;;0.27;;
70558;SDS011;58108;48.094;11.838;2022-09-21T11:50:46;1.25;;;0.25;;
70558;SDS011;58108;48.094;11.838;2022-09-21T11:56:24;1.65;;;0.40;;
70558;SDS011;58108;48.094;11.838;2022-09-21T12:05:12;1.65;;;0.40;;
70558;SDS011;58108;48.094;11.838;2022-09-21T12:07:59;2.65;;;0.40;;
70558;SDS011;58108;48.094;11.838;2022-09-21T12:10:36;1.52;;;0.30;;
70558;SDS011;58108;48.094;11.838;2022-09-21T12:15:56;2.03;;;0.43;;
70558;SDS011;58108;48.094;11.838;2022-09-21T12:18:36;1.40;;;0.30;;
70558;SDS011;58108;48.094;11.838;2022-09-21T12:23:50;2.63;;;0.50;;
70558;SDS011;58108;48.094;11.838;2022-09-21T12:26:22;1.80;;;0.40;;
70558;SDS011;58108;48.094;11.838;2022-09-21T12:29:05;1.40;;;0.50;;
70558;SDS011;58108;48.094;11.838;2022-09-21T12:31:40;1.90;;;0.60;;
70558;SDS011;58108;48.094;11.838;2022-09-21T12:34:16;1.48;;;0.30;;
70558;SDS011;58108;48.094;11.838;2022-09-21T12:36:46;1.15;;;0.30;;
70558;SDS011;58108;48.094;11.838;2022-09-21T12:39:26;1.50;;;0.40;;
70558;SDS011;58108;48.094;11.838;2022-09-21T12:41:58;1.97;;;0.40;;
70558;SDS011;58108;48.094;11.838;2022-09-21T12:44:37;1.52;;;0.40;;
70558;SDS011;58108;48.094;11.838;2022-09-21T12:47:19;1.30;;;0.30;;
70558;SDS011;58108;48.094;11.838;2022-09-21T12:49:52;1.33;;;0.40;;
70558;SDS011;58108;48.094;11.838;2022-09-21T12:52:24;1.45;;;0.40;;
70558;SDS011;58108;48.094;11.838;2022-09-21T12:57:46;1.88;;;0.80;;
70558;SDS011;58108;48.094;11.838;2022-09-21T13:00:21;2.17;;;0.50;;
70558;SDS011;58108;48.094;11.838;2022-09-21T13:02:56;1.60;;;0.45;;
70558;SDS011;58108;48.094;11.838;2022-09-21T13:05:49;1.73;;;0.50;;
70558;SDS011;58108;48.094;11.838;2022-09-21T13:08:39;1.40;;;0.50;;
70558;SDS011;58108;48.094;11.838;2022-09-21T13:11:05;2.22;;;0.55;;
70558;SDS011;58108;48.094;11.838;2022-09-21T13:13:45;1.85;;;0.30;;
70558;SDS011;58108;48.094;11.838;2022-09-21T13:16:34;1.20;;;0.40;;
70558;SDS011;58108;48.094;11.838;2022-09-21T13:19:04;1.50;;;0.55;;
70558;SDS011;58108;48.094;11.838;2022-09-21T13:21:40;1.30;;;0.40;;
70558;SDS011;58108;48.094;11.838;2022-09-21T13:24:21;1.55;;;0.45;;
70558;SDS011;58108;48.094;11.838;2022-09-21T13:26:54;2.10;;;0.30;;
70558;SDS011;58108;48.094;11.838;2022-09-21T13:29:31;1.88;;;0.52;;
70558;SDS011;58108;48.094;11.838;2022-09-21T13:34:39;1.47;;;0.30;;
70558;SDS011;58108;48.094;11.838;2022-09-21T13:39:35;2.63;;;0.30;;
70558;SDS011;58108;48.094;11.838;2022-09-21T13:44:55;2.15;;;0.30;;
70558;SDS011;58108;48.094;11.838;2022-09-21T13:47:31;2.93;;;0.70;;
70558;SDS011;58108;48.094;11.838;2022-09-21T13:49:59;2.28;;;0.45;;
70558;SDS011;58108;48.094;11.838;2022-09-21T13:52:33;1.85;;;0.30;;
70558;SDS011;58108;48.094;11.838;2022-09-21T13:55:04;1.42;;;0.20;;
70558;SDS011;58108;48.094;11.838;2022-09-21T13:57:45;1.30;;;0.30;;
70558;SDS011;58108;48.094;11.838;2022-09-21T14:02:45;1.45;;;0.40;;
70558;SDS011;58108;48.094;11.838;2022-09-21T14:10:25;1.50;;;0.30;;
70558;SDS011;58108;48.094;11.838;2022-09-21T14:12:54;1.20;;;0.30;;
70558;SDS011;58108;48.094;11.838;2022-09-21T14:18:07;1.20;;;0.27;;
70558;SDS011;58108;48.094;11.838;2022-09-21T14:21:06;1.55;;;0.50;;
70558;SDS011;58108;48.094;11.838;2022-09-21T14:23:41;1.40;;;0.40;;
70558;SDS011;58108;48.094;11.838;2022-09-21T14:29:15;1.70;;;0.38;;
70558;SDS011;58108;48.094;11.838;2022-09-21T14:31:45;1.10;;;0.20;;
70558;SDS011;58108;48.094;11.838;2022-09-21T14:34:14;1.50;;;0.30;;
70558;SDS011;58108;48.094;11.838;2022-09-21T14:36:47;1.40;;;0.40;;
70558;SDS011;58108;48.094;11.838;2022-09-21T14:39:19;1.30;;;0.30;;
70558;SDS011;58108;48.094;11.838;2022-09-21T14:41:49;1.23;;;0.30;;
70558;SDS011;58108;48.094;11.838;2022-09-21T14:44:21;1.10;;;0.30;;
70558;SDS011;58108;48.094;11.838;2022-09-21T14:46:59;1.20;;;0.30;;
70558;SDS011;58108;48.094;11.838;2022-09-21T14:52:17;2.77;;;0.27;;
70558;SDS011;58108;48.094;11.838;2022-09-21T14:57:53;1.20;;;0.20;;
70558;SDS011;58108;48.094;11.838;2022-09-21T15:00:37;1.00;;;0.10;;
70558;SDS011;58108;48.094;11.838;2022-09-21T15:05:54;1.10;;;0.20;;
70558;SDS011;58108;48.094;11.838;2022-09-21T15:11:23;2.15;;;0.40;;
70558;SDS011;58108;48.094;11.838;2022-09-21T15:16:45;2.30;;;0.30;;
70558;SDS011;58108;48.094;11.838;2022-09-21T15:21:43;2.25;;;0.30;;
70558;SDS011;58108;48.094;11.838;2022-09-21T15:24:17;1.95;;;0.30;;
70558;SDS011;58108;48.094;11.838;2022-09-21T15:26:45;1.48;;;0.30;;
70558;SDS011;58108;48.094;11.838;2022-09-21T15:29:19;2.70;;;0.40;;
70558;SDS011;58108;48.094;11.838;2022-09-21T15:31:56;1.77;;;0.50;;
70558;SDS011;58108;48.094;11.838;2022-09-21T15:34:23;2.65;;;1.10;;
70558;SDS011;58108;48.094;11.838;2022-09-21T15:36:49;2.97;;;1.15;;
70558;SDS011;58108;48.094;11.838;2022-09-21T15:39:26;2.13;;;0.40;;
70558;SDS011;58108;48.094;11.838;2022-09-21T15:44:34;1.42;;;0.32;;
70558;SDS011;58108;48.094;11.838;2022-09-21T15:47:02;1.70;;;0.40;;
70558;SDS011;58108;48.094;11.838;2022-09-21T15:49:32;1.67;;;0.30;;
70558;SDS011;58108;48.094;11.838;2022-09-21T15:51:59;1.43;;;0.33;;
70558;SDS011;58108;48.094;11.838;2022-09-21T15:54:34;2.60;;;0.40;;
70558;SDS011;58108;48.094;11.838;2022-09-21T15:57:05;1.73;;;0.47;;
70558;SDS011;58108;48.094;11.838;2022-09-21T16:00:03;2.47;;;0.70;;
70558;SDS011;58108;48.094;11.838;2022-09-21T16:02:34;3.72;;;1.95;;
70558;SDS011;58108;48.094;11.838;2022-09-21T16:05:02;2.90;;;0.60;;
70558;SDS011;58108;48.094;11.838;2022-09-21T16:07:33;1.70;;;0.40;;
70558;SDS011;58108;48.094;11.838;2022-09-21T16:10:00;1.50;;;0.30;;
70558;SDS011;58108;48.094;11.838;2022-09-21T16:12:47;2.28;;;0.30;;
70558;SDS011;58108;48.094;11.838;2022-09-21T16:15:24;3.95;;;0.60;;
70558;SDS011;58108;48.094;11.838;2022-09-21T16:20:19;1.37;;;0.50;;
70558;SDS011;58108;48.094;11.838;2022-09-21T16:22:48;2.70;;;0.50;;
70558;SDS011;58108;48.094;11.838;2022-09-21T16:25:28;2.53;;;0.40;;
70558;SDS011;58108;48.094;11.838;2022-09-21T16:30:48;1.33;;;0.40;;
70558;SDS011;58108;48.094;11.838;2022-09-21T16:36:32;1.73;;;0.45;;
70558;SDS011;58108;48.094;11.838;2022-09-21T16:38:50;1.67;;;0.30;;
70558;SDS011;58108;48.094;11.838;2022-09-21T16:41:19;1.98;;;0.30;;
70558;SDS011;58108;48.094;11.838;2022-09-21T16:43:46;2.03;;;0.30;;
70558;SDS011;58108;48.094;11.838;2022-09-21T16:46:12;2.10;;;0.20;;
70558;SDS011;58108;48.094;11.838;2022-09-21T16:48:38;1.20;;;0.22;;
70558;SDS011;58108;48.094;11.838;2022-09-21T16:51:22;1.50;;;0.30;;
70558;SDS011;58108;48.094;11.838;2022-09-21T16:53:49;1.75;;;0.50;;
70558;SDS011;58108;48.094;11.838;2022-09-21T16:56:15;2.08;;;0.40;;
70558;SDS011;58108;48.094;11.838;2022-09-21T16:58:41;1.80;;;0.50;;
70558;SDS011;58108;48.094;11.838;2022-09-21T17:01:09;2.00;;;0.43;;
70558;SDS011;58108;48.094;11.838;2022-09-21T17:03:37;2.22;;;0.50;;
70558;SDS011;58108;48.094;11.838;2022-09-21T17:06:04;2.38;;;0.60;;
70558;SDS011;58108;48.094;11.838;2022-09-21T17:08:35;2.38;;;0.60;;
70558;SDS011;58108;48.094;11.838;2022-09-21T17:11:01;2.20;;;0.60;;
70558;SDS011;58108;48.094;11.838;2022-09-21T17:13:28;2.35;;;0.63;;
70558;SDS011;58108;48.094;11.838;2022-09-21T17:15:55;2.78;;;0.60;;
70558;SDS011;58108;48.094;11.838;2022-09-21T17:18:22;1.80;;;0.40;;
70558;SDS011;58108;48.094;11.838;2022-09-21T17:20:47;2.20;;;0.50;;
70558;SDS011;58108;48.094;11.838;2022-09-21T17:23:13;1.90;;;0.60;;